createdAt,value
2023-04-29T04:00:41.713Z,99.99
2023-04-29T04:01:42.690Z,99.99
2023-04-29T04:02:42.866Z,99.99
2023-04-29T04:03:42.718Z,99.99
2023-04-29T04:04:42.748Z,99.99
2023-04-29T04:05:42.610Z,99.99
2023-04-29T04:06:42.655Z,99.99
2023-04-29T04:07:42.596Z,99.99
2023-04-29T04:08:42.577Z,99.99
2023-04-29T04:09:42.577Z,99.99
2023-04-29T04:10:42.550Z,99.99
2023-04-29T04:11:42.548Z,99.99
2023-04-29T04:12:44.266Z,99.99
2023-04-29T04:13:42.528Z,99.99
2023-04-29T04:14:42.522Z,99.99
2023-04-29T04:15:42.503Z,99.99
2023-04-29T04:16:42.528Z,99.99
2023-04-29T04:17:42.516Z,99.99
2023-04-29T04:18:42.460Z,99.99
2023-04-29T04:19:42.479Z,99.99
2023-04-29T04:20:42.441Z,99.99
2023-04-29T04:21:42.439Z,99.99
2023-04-29T04:22:42.421Z,99.99
2023-04-29T04:23:42.401Z,99.99
2023-04-29T04:24:42.471Z,99.99
2023-04-29T04:25:42.402Z,99.99
2023-04-29T04:26:42.406Z,99.99
2023-04-29T04:27:42.369Z,99.99
2023-04-29T04:28:42.384Z,99.99
2023-04-29T04:29:42.366Z,99.99
2023-04-29T04:30:42.344Z,99.99
2023-04-29T04:31:43.041Z,99.99
2023-04-29T04:32:42.358Z,99.99
2023-04-29T04:33:42.293Z,99.99
2023-04-29T04:34:42.307Z,99.99
2023-04-29T04:35:42.326Z,99.99
2023-04-29T04:36:42.319Z,99.99
2023-04-29T04:37:42.297Z,99.99
2023-04-29T04:38:42.267Z,99.99
2023-04-29T04:39:42.258Z,99.99
2023-04-29T04:40:42.251Z,99.99
2023-04-29T04:41:42.275Z,99.99
2023-04-29T04:42:42.231Z,99.99
2023-04-29T04:43:42.188Z,99.99
2023-04-29T04:44:42.229Z,99.99
2023-04-29T04:45:42.199Z,99.99
2023-04-29T04:46:42.164Z,99.99
2023-04-29T04:47:42.227Z,99.99
2023-04-29T04:48:42.164Z,99.99
2023-04-29T04:49:42.197Z,99.99
2023-04-29T04:50:42.122Z,99.99
2023-04-29T04:51:42.128Z,99.99
2023-04-29T04:52:42.118Z,99.99
2023-04-29T04:53:42.121Z,99.99
2023-04-29T04:54:42.123Z,99.99
2023-04-29T04:55:42.084Z,99.99
2023-04-29T04:56:42.100Z,99.99
2023-04-29T04:57:42.050Z,99.99
2023-04-29T04:58:42.038Z,99.99
2023-04-29T04:59:42.041Z,99.99
2023-04-29T05:00:42.027Z,99.99
2023-04-29T05:01:42.192Z,99.99
2023-04-29T05:02:42.189Z,99.99
2023-04-29T05:03:42.144Z,99.99
2023-04-29T05:04:42.008Z,99.99
2023-04-29T05:05:41.965Z,99.99
2023-04-29T05:06:41.969Z,99.99
2023-04-29T05:07:41.966Z,99.99
2023-04-29T05:08:41.935Z,99.99
2023-04-29T05:09:41.921Z,99.99
2023-04-29T05:10:42.295Z,99.99
2023-04-29T05:11:41.931Z,99.99
2023-04-29T05:12:41.894Z,99.99
2023-04-29T05:13:41.889Z,99.99
2023-04-29T05:14:41.864Z,99.99
2023-04-29T05:15:41.880Z,99.99
2023-04-29T05:16:41.931Z,99.99
2023-04-29T05:17:41.870Z,99.99
2023-04-29T05:18:41.825Z,99.99
2023-04-29T05:19:41.893Z,99.99
2023-04-29T05:20:41.848Z,99.99
2023-04-29T05:21:41.804Z,99.99
2023-04-29T05:22:41.785Z,99.99
2023-04-29T05:23:41.772Z,99.99
2023-04-29T05:24:41.787Z,99.99
2023-04-29T05:25:41.781Z,99.99
2023-04-29T05:26:41.794Z,99.99
2023-04-29T05:27:41.738Z,99.99
2023-04-29T05:28:41.735Z,99.99
2023-04-29T05:29:41.747Z,99.99
2023-04-29T05:30:41.829Z,99.99
2023-04-29T05:31:41.681Z,99.99
2023-04-29T05:32:41.705Z,99.99
2023-04-29T05:33:41.664Z,99.99
2023-04-29T05:34:41.667Z,99.99
2023-04-29T05:35:41.652Z,99.99
2023-04-29T05:36:41.658Z,99.99
2023-04-29T05:37:41.673Z,99.99
2023-04-29T05:38:41.650Z,99.99
2023-04-29T05:39:41.613Z,99.99
2023-04-29T05:40:41.619Z,99.99
2023-04-29T05:41:41.582Z,99.99
2023-04-29T05:42:41.577Z,99.99
2023-04-29T05:43:41.590Z,99.99
2023-04-29T05:44:41.554Z,99.99
2023-04-29T05:45:41.544Z,99.99
2023-04-29T05:46:41.562Z,99.99
2023-04-29T05:47:41.537Z,99.99
2023-04-29T05:48:41.536Z,99.99
2023-04-29T05:49:41.517Z,99.99
2023-04-29T05:50:41.501Z,99.99
2023-04-29T05:51:41.476Z,99.99
2023-04-29T05:52:41.537Z,99.99
2023-04-29T05:53:41.457Z,99.99
2023-04-29T05:54:41.459Z,99.99
2023-04-29T05:55:41.466Z,99.99
2023-04-29T05:56:41.459Z,99.99
2023-04-29T05:57:41.435Z,99.99
2023-04-29T05:58:41.440Z,99.99
2023-04-29T05:59:41.382Z,99.99
2023-04-29T06:00:41.406Z,99.99
2023-04-29T06:01:41.398Z,99.99
2023-04-29T06:02:50.665Z,99.99
2023-04-29T06:03:41.439Z,99.99
2023-04-29T06:04:41.781Z,99.99
2023-04-29T06:05:41.976Z,99.99
2023-04-29T06:06:41.316Z,99.99
2023-04-29T06:07:41.359Z,99.99
2023-04-29T06:08:41.313Z,99.99
2023-04-29T06:09:41.276Z,99.99
2023-04-29T06:10:41.309Z,99.99
2023-04-29T06:11:41.264Z,99.99
2023-04-29T06:12:41.280Z,99.99
2023-04-29T06:13:41.281Z,99.99
2023-04-29T06:14:41.255Z,99.99
2023-04-29T06:15:41.240Z,99.99
2023-04-29T06:16:41.337Z,99.99
2023-04-29T06:17:41.229Z,99.99
2023-04-29T06:18:41.244Z,99.99
2023-04-29T06:19:41.180Z,99.99
2023-04-29T06:20:41.201Z,99.99
2023-04-29T06:21:41.189Z,99.99
2023-04-29T06:22:41.153Z,99.99
2023-04-29T06:23:41.157Z,99.99
2023-04-29T06:24:41.130Z,99.99
2023-04-29T06:25:41.216Z,99.99
2023-04-29T06:26:41.130Z,99.99
2023-04-29T06:27:41.125Z,99.99
2023-04-29T06:28:41.086Z,99.99
2023-04-29T06:29:41.118Z,99.99
2023-04-29T06:30:41.093Z,99.99
2023-04-29T06:31:41.125Z,99.99
2023-04-29T06:32:41.109Z,99.99
2023-04-29T06:33:41.031Z,99.99
2023-04-29T06:34:41.057Z,99.99
2023-04-29T06:35:41.052Z,99.99
2023-04-29T06:36:41.010Z,99.99
2023-04-29T06:37:40.987Z,99.99
2023-04-29T06:38:41.011Z,99.99
2023-04-29T06:39:40.981Z,99.99
2023-04-29T06:40:41.123Z,99.99
2023-04-29T06:41:41.051Z,99.99
2023-04-29T06:42:40.944Z,99.99
2023-04-29T06:43:40.923Z,99.99
2023-04-29T06:44:40.924Z,99.99
2023-04-29T06:45:41.078Z,99.99
2023-04-29T06:46:40.954Z,99.99
2023-04-29T06:47:40.973Z,99.99
2023-04-29T06:48:40.892Z,99.99
2023-04-29T06:49:40.859Z,99.99
2023-04-29T06:50:40.848Z,99.99
2023-04-29T06:51:40.899Z,99.99
2023-04-29T06:52:40.850Z,99.99
2023-04-29T06:53:40.808Z,99.99
2023-04-29T06:54:40.834Z,99.99
2023-04-29T06:55:40.830Z,99.99
2023-04-29T06:56:40.809Z,99.99
2023-04-29T06:57:40.830Z,99.99
2023-04-29T06:58:40.767Z,99.99
2023-04-29T06:59:40.759Z,99.99
2023-04-29T07:00:40.767Z,99.99
2023-04-29T07:01:44.024Z,99.99
2023-04-29T07:02:40.823Z,99.99
2023-04-29T07:03:40.867Z,99.99
2023-04-29T07:04:40.785Z,99.99
2023-04-29T07:05:40.707Z,99.99
2023-04-29T07:06:40.759Z,99.99
2023-04-29T07:07:40.680Z,99.99
2023-04-29T07:08:40.656Z,99.99
2023-04-29T07:09:40.687Z,99.99
2023-04-29T07:10:40.653Z,99.99
2023-04-29T07:11:40.790Z,99.99
2023-04-29T07:12:40.635Z,99.99
2023-04-29T07:13:40.619Z,99.99
2023-04-29T07:14:40.601Z,99.99
2023-04-29T07:15:40.599Z,99.99
2023-04-29T07:16:40.747Z,99.99
2023-04-29T07:17:40.658Z,99.99
2023-04-29T07:18:40.590Z,99.99
2023-04-29T07:19:40.549Z,99.99
2023-04-29T07:20:40.568Z,99.99
2023-04-29T07:21:40.561Z,99.99
2023-04-29T07:22:40.564Z,99.99
2023-04-29T07:23:40.502Z,99.99
2023-04-29T07:24:40.566Z,99.99
2023-04-29T07:25:40.512Z,99.99
2023-04-29T07:26:40.512Z,99.99
2023-04-29T07:27:41.769Z,99.99
2023-04-29T07:28:40.491Z,99.99
2023-04-29T07:29:40.445Z,99.99
2023-04-29T07:30:40.495Z,99.99
2023-04-29T07:31:40.447Z,99.99
2023-04-29T07:32:40.442Z,99.99
2023-04-29T07:33:40.413Z,99.99
2023-04-29T07:34:40.385Z,99.99
2023-04-29T07:35:40.368Z,99.99
2023-04-29T07:36:40.369Z,99.99
2023-04-29T07:37:42.596Z,99.99
2023-04-29T07:38:40.361Z,99.99
2023-04-29T07:39:40.339Z,99.99
2023-04-29T07:40:40.330Z,99.99
2023-04-29T07:41:40.344Z,99.99
2023-04-29T07:42:40.299Z,99.99
2023-04-29T07:43:42.270Z,99.99
2023-04-29T07:44:40.286Z,99.99
2023-04-29T07:45:40.260Z,99.99
2023-04-29T07:46:40.446Z,99.99
2023-04-29T07:47:40.329Z,99.99
2023-04-29T07:48:40.233Z,99.99
2023-04-29T07:49:40.247Z,99.99
2023-04-29T07:50:40.244Z,99.99
2023-04-29T07:51:40.221Z,99.99
2023-04-29T07:52:40.188Z,99.99
2023-04-29T07:53:40.173Z,99.99
2023-04-29T07:54:40.173Z,99.99
2023-04-29T07:55:40.178Z,99.99
2023-04-29T07:56:40.173Z,99.99
2023-04-29T07:57:40.151Z,99.99
2023-04-29T07:58:40.132Z,99.99
2023-04-29T07:59:40.125Z,99.99
2023-04-29T08:00:40.130Z,99.99
2023-04-29T08:01:40.097Z,99.99
2023-04-29T08:02:40.230Z,99.99
2023-04-29T08:03:41.826Z,99.99
2023-04-29T08:04:40.319Z,99.99
2023-04-29T08:05:40.115Z,99.99
2023-04-29T08:06:40.085Z,99.99
2023-04-29T08:07:40.051Z,99.99
2023-04-29T08:08:40.049Z,99.99
2023-04-29T08:09:40.028Z,99.99
2023-04-29T08:10:40.028Z,99.99
2023-04-29T08:11:40.022Z,99.99
2023-04-29T08:12:39.976Z,99.99
2023-04-29T08:13:39.977Z,99.99
2023-04-29T08:14:39.970Z,99.99
2023-04-29T08:15:40.058Z,99.99
2023-04-29T08:16:40.011Z,99.99
2023-04-29T08:17:39.961Z,99.99
2023-04-29T08:18:39.911Z,99.99
2023-04-29T08:19:39.934Z,99.99
2023-04-29T08:20:39.894Z,99.99
2023-04-29T08:21:39.939Z,99.99
2023-04-29T08:22:39.869Z,99.99
2023-04-29T08:23:39.884Z,99.99
2023-04-29T08:24:39.848Z,99.99
2023-04-29T08:25:39.891Z,99.99
2023-04-29T08:26:39.884Z,99.99
2023-04-29T08:27:39.824Z,99.99
2023-04-29T08:28:39.853Z,99.99
2023-04-29T08:29:39.818Z,99.99
2023-04-29T08:30:39.820Z,99.99
2023-04-29T08:31:39.849Z,99.99
2023-04-29T08:32:39.853Z,99.99
2023-04-29T08:33:39.803Z,99.99
2023-04-29T08:34:39.765Z,99.99
2023-04-29T08:35:39.753Z,99.99
2023-04-29T08:36:39.775Z,99.99
2023-04-29T08:37:39.812Z,99.99
2023-04-29T08:38:39.704Z,99.99
2023-04-29T08:39:39.699Z,99.99
2023-04-29T08:40:39.725Z,99.99
2023-04-29T08:41:39.717Z,99.99
2023-04-29T08:42:39.830Z,99.99
2023-04-29T08:43:39.678Z,99.99
2023-04-29T08:44:39.660Z,99.99
2023-04-29T08:45:39.974Z,99.99
2023-04-29T08:46:39.664Z,99.99
2023-04-29T08:47:39.689Z,99.99
2023-04-29T08:48:40.405Z,99.99
2023-04-29T08:49:39.648Z,99.99
2023-04-29T08:50:39.627Z,99.99
2023-04-29T08:51:39.608Z,99.99
2023-04-29T08:52:39.608Z,99.99
2023-04-29T08:53:39.576Z,99.99
2023-04-29T08:54:39.551Z,99.99
2023-04-29T08:55:39.561Z,99.99
2023-04-29T08:56:39.567Z,99.99
2023-04-29T08:57:39.660Z,99.99
2023-04-29T08:58:39.509Z,99.99
2023-04-29T08:59:39.495Z,99.99
2023-04-29T09:00:39.491Z,99.99
2023-04-29T09:01:39.608Z,99.99
2023-04-29T09:02:39.515Z,99.99
2023-04-29T09:03:39.539Z,99.99
2023-04-29T09:04:39.474Z,99.99
2023-04-29T09:05:39.468Z,99.99
2023-04-29T09:06:39.441Z,99.99
2023-04-29T09:07:39.420Z,99.99
2023-04-29T09:08:39.388Z,99.99
2023-04-29T09:09:39.400Z,99.99
2023-04-29T09:10:39.445Z,97.92
2023-04-29T09:11:39.440Z,99.29
2023-04-29T09:12:39.354Z,99.99
2023-04-29T09:13:39.370Z,98.07
2023-04-29T09:14:39.330Z,97.25
2023-04-29T09:15:39.368Z,97.77
2023-04-29T09:16:39.386Z,98.18
2023-04-29T09:17:39.321Z,98.38
2023-04-29T09:18:39.298Z,99.80
2023-04-29T09:19:39.323Z,98.33
2023-04-29T09:20:39.295Z,99.76
2023-04-29T09:21:39.280Z,96.44
2023-04-29T09:22:39.278Z,98.74
2023-04-29T09:23:39.315Z,96.39
2023-04-29T09:24:39.229Z,95.89
2023-04-29T09:25:39.245Z,95.21
2023-04-29T09:26:39.208Z,94.95
2023-04-29T09:27:39.214Z,95.77
2023-04-29T09:28:39.180Z,98.43
2023-04-29T09:29:39.198Z,97.40
2023-04-29T09:30:39.176Z,99.60
2023-04-29T09:31:39.210Z,96.30
2023-04-29T09:32:39.477Z,94.09
2023-04-29T09:33:39.182Z,93.63
2023-04-29T09:34:39.107Z,96.54
2023-04-29T09:35:39.252Z,94.71
2023-04-29T09:36:39.151Z,95.12
2023-04-29T09:37:39.100Z,96.86
2023-04-29T09:38:39.075Z,92.42
2023-04-29T09:39:39.106Z,94.52
2023-04-29T09:40:54.337Z,91.77
2023-04-29T09:41:39.158Z,93.40
2023-04-29T09:42:39.041Z,93.05
2023-04-29T09:43:39.053Z,90.86
2023-04-29T09:44:39.012Z,90.46
2023-04-29T09:45:39.046Z,89.89
2023-04-29T09:46:39.079Z,90.64
2023-04-29T09:47:39.005Z,92.58
2023-04-29T09:48:38.976Z,91.36
2023-04-29T09:49:38.988Z,91.97
2023-04-29T09:50:38.970Z,93.50
2023-04-29T09:51:38.943Z,93.70
2023-04-29T09:52:38.923Z,93.60
2023-04-29T09:53:38.983Z,94.11
2023-04-29T09:54:38.960Z,94.47
2023-04-29T09:55:38.922Z,91.83
2023-04-29T09:56:38.894Z,91.52
2023-04-29T09:57:38.892Z,93.45
2023-04-29T09:58:38.895Z,93.10
2023-04-29T09:59:38.889Z,89.79
2023-04-29T10:00:38.857Z,91.26
2023-04-29T10:01:38.877Z,92.13
2023-04-29T10:02:38.895Z,93.82
2023-04-29T10:03:39.339Z,88.46
2023-04-29T10:04:40.085Z,89.38
2023-04-29T10:05:38.836Z,92.40
2023-04-29T10:06:38.806Z,89.48
2023-04-29T10:07:38.805Z,90.44
2023-04-29T10:08:38.778Z,89.22
2023-04-29T10:09:38.757Z,89.77
2023-04-29T10:10:38.775Z,91.50
2023-04-29T10:11:38.802Z,92.01
2023-04-29T10:12:38.731Z,93.33
2023-04-29T10:13:38.970Z,93.03
2023-04-29T10:14:38.713Z,97.37
2023-04-29T10:15:38.726Z,95.90
2023-04-29T10:16:38.814Z,91.31
2023-04-29T10:17:38.690Z,90.09
2023-04-29T10:18:38.699Z,91.27
2023-04-29T10:19:38.678Z,88.63
2023-04-29T10:20:38.658Z,88.59
2023-04-29T10:21:38.618Z,89.87
2023-04-29T10:22:38.619Z,89.78
2023-04-29T10:23:38.615Z,86.53
2023-04-29T10:24:38.578Z,84.28
2023-04-29T10:25:38.606Z,85.70
2023-04-29T10:26:38.572Z,84.42
2023-04-29T10:27:38.576Z,83.81
2023-04-29T10:28:38.548Z,83.97
2023-04-29T10:29:38.571Z,86.82
2023-04-29T10:30:38.537Z,85.55
2023-04-29T10:31:38.580Z,87.18
2023-04-29T10:33:38.627Z,83.93
2023-04-29T10:34:38.527Z,84.64
2023-04-29T10:35:38.536Z,84.88
2023-04-29T10:36:38.481Z,84.03
2023-04-29T10:37:38.464Z,83.56
2023-04-29T10:38:38.447Z,82.54
2023-04-29T10:39:38.461Z,85.09
2023-04-29T10:40:38.468Z,83.73
2023-04-29T10:41:38.448Z,84.50
2023-04-29T10:42:38.422Z,84.56
2023-04-29T10:43:38.413Z,81.68
2023-04-29T10:44:38.372Z,80.36
2023-04-29T10:45:38.368Z,80.06
2023-04-29T10:46:38.465Z,79.75
2023-04-29T10:47:38.404Z,81.01
2023-04-29T10:48:38.344Z,82.29
2023-04-29T10:49:38.323Z,79.85
2023-04-29T10:50:38.331Z,78.44
2023-04-29T10:51:38.330Z,76.95
2023-04-29T10:52:38.299Z,77.56
2023-04-29T10:53:38.297Z,78.34
2023-04-29T10:54:38.297Z,80.37
2023-04-29T10:55:38.314Z,80.47
2023-04-29T10:56:38.366Z,82.37
2023-04-29T10:57:38.268Z,81.31
2023-04-29T10:58:38.236Z,82.84
2023-04-29T10:59:38.212Z,81.38
2023-04-29T11:00:38.235Z,80.06
2023-04-29T11:01:38.397Z,80.26
2023-04-29T11:02:38.353Z,81.58
2023-04-29T11:03:38.361Z,77.45
2023-04-29T11:04:38.263Z,77.59
2023-04-29T11:05:38.161Z,80.44
2023-04-29T11:06:38.190Z,81.56
2023-04-29T11:07:38.149Z,81.45
2023-04-29T11:08:38.119Z,82.26
2023-04-29T11:09:38.113Z,78.91
2023-04-29T11:10:38.121Z,81.86
2023-04-29T11:11:38.119Z,80.80
2023-04-29T11:12:38.079Z,80.30
2023-04-29T11:13:38.113Z,78.67
2023-04-29T11:14:38.173Z,76.85
2023-04-29T11:15:38.121Z,78.30
2023-04-29T11:16:38.096Z,76.51
2023-04-29T11:17:38.358Z,78.75
2023-04-29T11:18:38.065Z,81.59
2023-04-29T11:19:38.039Z,80.78
2023-04-29T11:20:38.021Z,83.62
2023-04-29T11:21:38.032Z,79.77
2023-04-29T11:22:37.980Z,82.31
2023-04-29T11:23:38.013Z,81.33
2023-04-29T11:24:38.003Z,82.31
2023-04-29T11:25:39.456Z,81.79
2023-04-29T11:26:37.947Z,84.44
2023-04-29T11:27:38.008Z,82.67
2023-04-29T11:28:37.940Z,80.54
2023-04-29T11:29:37.915Z,81.35
2023-04-29T11:30:37.915Z,78.81
2023-04-29T11:31:38.048Z,78.95
2023-04-29T11:32:38.039Z,78.81
2023-04-29T11:33:37.893Z,81.01
2023-04-29T11:34:37.872Z,79.69
2023-04-29T11:35:37.894Z,77.66
2023-04-29T11:36:37.834Z,79.63
2023-04-29T11:37:37.860Z,80.50
2023-04-29T11:38:37.827Z,78.51
2023-04-29T11:39:37.823Z,79.72
2023-04-29T11:40:37.790Z,79.32
2023-04-29T11:41:37.784Z,79.12
2023-04-29T11:42:37.788Z,78.81
2023-04-29T11:43:37.760Z,80.94
2023-04-29T11:44:37.750Z,80.24
2023-04-29T11:45:37.791Z,79.12
2023-04-29T11:46:37.779Z,77.47
2023-04-29T11:47:37.779Z,79.39
2023-04-29T11:48:37.841Z,79.90
2023-04-29T11:49:37.698Z,82.14
2023-04-29T11:50:37.691Z,79.50
2023-04-29T11:51:37.687Z,80.21
2023-04-29T11:52:37.684Z,79.63
2023-04-29T11:53:37.666Z,80.24
2023-04-29T11:54:37.650Z,80.21
2023-04-29T11:55:37.682Z,79.84
2023-04-29T11:56:37.666Z,81.23
2023-04-29T11:57:37.638Z,79.70
2023-04-29T11:58:37.620Z,81.63
2023-04-29T11:59:37.625Z,82.54
2023-04-29T12:00:37.601Z,81.23
2023-04-29T12:01:37.577Z,81.12
2023-04-29T12:02:37.664Z,81.16
2023-04-29T12:03:37.857Z,81.06
2023-04-29T12:04:37.687Z,82.68
2023-04-29T12:05:37.660Z,82.07
2023-04-29T12:06:37.542Z,82.07
2023-04-29T12:07:37.598Z,82.18
2023-04-29T12:08:37.502Z,82.89
2023-04-29T12:09:37.503Z,82.18
2023-04-29T12:10:37.469Z,83.87
2023-04-29T12:11:37.483Z,83.97
2023-04-29T12:12:37.500Z,82.24
2023-04-29T12:13:37.447Z,83.46
2023-04-29T12:14:37.457Z,82.45
2023-04-29T12:15:39.582Z,79.39
2023-04-29T12:16:37.421Z,80.41
2023-04-29T12:17:37.475Z,79.66
2023-04-29T12:18:37.434Z,79.97
2023-04-29T12:19:37.410Z,79.36
2023-04-29T12:20:37.366Z,80.94
2023-04-29T12:21:37.365Z,78.10
2023-04-29T12:22:37.361Z,79.02
2023-04-29T12:23:37.335Z,78.10
2023-04-29T12:24:37.366Z,78.00
2023-04-29T12:25:37.321Z,79.02
2023-04-29T12:26:37.324Z,77.36
2023-04-29T12:27:37.557Z,77.05
2023-04-29T12:28:37.297Z,76.88
2023-04-29T12:29:37.320Z,78.61
2023-04-29T12:30:37.268Z,77.59
2023-04-29T12:31:37.494Z,79.72
2023-04-29T12:32:37.343Z,79.59
2023-04-29T12:33:37.276Z,78.47
2023-04-29T12:34:37.290Z,77.05
2023-04-29T12:35:37.235Z,76.88
2023-04-29T12:36:37.216Z,79.08
2023-04-29T12:37:37.212Z,77.59
2023-04-29T12:38:37.194Z,77.86
2023-04-29T12:39:37.205Z,76.28
2023-04-29T12:40:37.179Z,76.98
2023-04-29T12:41:37.144Z,76.64
2023-04-29T12:42:37.171Z,76.00
2023-04-29T12:43:37.147Z,74.88
2023-04-29T12:44:37.187Z,74.65
2023-04-29T12:45:37.113Z,76.67
2023-04-29T12:46:37.127Z,72.92
2023-04-29T12:47:37.503Z,73.12
2023-04-29T12:48:37.125Z,75.86
2023-04-29T12:49:37.098Z,77.95
2023-04-29T12:50:37.075Z,72.92
2023-04-29T12:51:37.054Z,74.74
2023-04-29T12:52:37.115Z,74.44
2023-04-29T12:53:37.023Z,75.66
2023-04-29T12:54:37.067Z,73.09
2023-04-29T12:55:37.027Z,74.41
2023-04-29T12:56:36.993Z,72.45
2023-04-29T12:57:37.236Z,72.89
2023-04-29T12:58:37.026Z,72.89
2023-04-29T12:59:36.976Z,71.06
2023-04-29T13:00:37.011Z,72.14
2023-04-29T13:01:37.049Z,70.32
2023-04-29T13:02:37.068Z,70.39
2023-04-29T13:03:37.273Z,71.91
2023-04-29T13:04:37.818Z,70.79
2023-04-29T13:05:36.911Z,72.21
2023-04-29T13:06:36.936Z,71.26
2023-04-29T13:07:37.180Z,71.47
2023-04-29T13:08:36.889Z,70.29
2023-04-29T13:09:36.853Z,69.85
2023-04-29T13:10:36.888Z,68.53
2023-04-29T13:11:36.856Z,68.77
2023-04-29T13:12:36.846Z,67.99
2023-04-29T13:13:36.813Z,69.48
2023-04-29T13:14:36.827Z,66.97
2023-04-29T13:15:36.788Z,68.66
2023-04-29T13:16:36.930Z,69.54
2023-04-29T13:17:36.885Z,67.49
2023-04-29T13:18:36.909Z,69.01
2023-04-29T13:19:50.287Z,66.67
2023-04-29T13:20:41.608Z,67.99
2023-04-29T13:21:36.733Z,67.55
2023-04-29T13:22:36.732Z,68.46
2023-04-29T13:23:36.733Z,67.31
2023-04-29T13:24:36.812Z,68.93
2023-04-29T13:25:36.754Z,69.13
2023-04-29T13:26:36.663Z,69.47
2023-04-29T13:27:36.675Z,70.01
2023-04-29T13:28:37.125Z,71.70
2023-04-29T13:29:36.656Z,74.44
2023-04-29T13:30:36.668Z,72.82
2023-04-29T13:31:36.651Z,74.17
2023-04-29T13:33:39.793Z,72.38
2023-04-29T13:34:36.628Z,72.08
2023-04-29T13:35:36.603Z,73.39
2023-04-29T13:36:36.564Z,73.70
2023-04-29T13:37:36.560Z,74.98
2023-04-29T13:38:36.919Z,74.98
2023-04-29T13:39:38.427Z,75.79
2023-04-29T13:40:40.640Z,75.70
2023-04-29T13:41:36.600Z,73.97
2023-04-29T13:42:45.158Z,72.45
2023-04-29T13:43:39.141Z,72.58
2023-04-29T13:44:49.724Z,73.46
2023-04-29T13:45:39.992Z,75.49
2023-04-29T13:46:36.523Z,73.19
2023-04-29T13:47:56.448Z,72.89
2023-04-29T13:49:14.241Z,72.99
2023-04-29T13:50:10.054Z,74.71
2023-04-29T13:52:16.860Z,72.28
2023-04-29T13:53:24.724Z,74.17
2023-04-29T13:54:36.438Z,72.96
2023-04-29T13:55:35.932Z,72.14
2023-04-29T13:59:44.769Z,71.37
2023-04-29T14:02:36.829Z,71.33
2023-04-29T14:03:36.465Z,74.33
2023-04-29T14:04:36.333Z,72.38
2023-04-29T14:05:36.402Z,71.70
2023-04-29T14:06:36.310Z,70.39
2023-04-29T14:07:36.265Z,69.51
2023-04-29T14:08:36.223Z,69.31
2023-04-29T14:09:36.229Z,69.34
2023-04-29T14:10:36.247Z,72.48
2023-04-29T14:11:36.197Z,68.96
2023-04-29T14:12:36.184Z,71.80
2023-04-29T14:13:36.178Z,69.37
2023-04-29T14:14:36.197Z,69.78
2023-04-29T14:15:36.223Z,68.70
2023-04-29T14:16:36.167Z,68.39
2023-04-29T14:17:36.142Z,68.70
2023-04-29T14:18:36.157Z,69.30
2023-04-29T14:19:36.160Z,71.13
2023-04-29T14:20:36.108Z,69.51
2023-04-29T14:21:36.110Z,69.51
2023-04-29T14:22:36.101Z,69.40
2023-04-29T14:23:36.069Z,68.08
2023-04-29T14:24:36.105Z,68.49
2023-04-29T14:25:36.044Z,67.38
2023-04-29T14:26:36.057Z,68.83
2023-04-29T14:27:36.030Z,69.51
2023-04-29T14:28:36.032Z,69.00
2023-04-29T14:29:36.027Z,71.33
2023-04-29T14:30:36.051Z,70.32
2023-04-29T14:31:36.004Z,70.11
2023-04-29T14:32:36.070Z,69.81
2023-04-29T14:33:35.957Z,71.84
2023-04-29T14:34:35.967Z,71.53
2023-04-29T14:35:35.942Z,69.10
2023-04-29T14:36:35.938Z,73.36
2023-04-29T14:37:35.978Z,70.25
2023-04-29T14:38:35.949Z,71.23
2023-04-29T14:39:35.938Z,69.74
2023-04-29T14:40:36.034Z,72.08
2023-04-29T14:41:35.905Z,74.62
2023-04-29T14:42:35.866Z,73.19
2023-04-29T14:43:35.884Z,70.04
2023-04-29T14:44:35.913Z,71.16
2023-04-29T14:45:35.828Z,71.36
2023-04-29T14:46:35.847Z,70.45
2023-04-29T14:47:35.895Z,68.62
2023-04-29T14:48:35.816Z,70.25
2023-04-29T14:49:35.822Z,69.23
2023-04-29T14:50:35.791Z,68.59
2023-04-29T14:51:35.791Z,70.39
2023-04-29T14:52:35.788Z,70.39
2023-04-29T14:53:35.756Z,69.44
2023-04-29T14:54:35.835Z,67.11
2023-04-29T14:55:35.732Z,69.64
2023-04-29T14:56:35.774Z,67.51
2023-04-29T14:57:35.740Z,66.67
2023-04-29T14:58:35.725Z,69.68
2023-04-29T14:59:35.674Z,72.31
2023-04-29T15:00:35.693Z,71.26
2023-04-29T15:01:35.702Z,69.14
2023-04-29T15:02:35.653Z,66.20
2023-04-29T15:03:43.577Z,66.00
2023-04-29T15:04:35.758Z,68.16
2023-04-29T15:05:35.626Z,69.37
2023-04-29T15:06:35.686Z,67.14
2023-04-29T15:07:35.602Z,68.12
2023-04-29T15:08:35.648Z,68.12
2023-04-29T15:09:35.608Z,71.88
2023-04-29T15:10:35.570Z,68.12
2023-04-29T15:11:35.610Z,72.48
2023-04-29T15:12:35.549Z,68.76
2023-04-29T15:13:35.532Z,71.00
2023-04-29T15:14:35.556Z,69.98
2023-04-29T15:15:35.573Z,70.39
2023-04-29T15:16:35.623Z,72.21
2023-04-29T15:17:35.564Z,71.80
2023-04-29T15:18:35.501Z,70.08
2023-04-29T15:19:35.523Z,71.80
2023-04-29T15:20:35.496Z,69.47
2023-04-29T15:21:35.453Z,70.28
2023-04-29T15:22:35.492Z,70.48
2023-04-29T15:23:35.431Z,76.23
2023-04-29T15:24:35.447Z,72.08
2023-04-29T15:25:36.244Z,72.38
2023-04-29T15:26:35.477Z,71.06
2023-04-29T15:27:35.413Z,74.51
2023-04-29T15:28:35.406Z,72.96
2023-04-29T15:29:35.404Z,71.94
2023-04-29T15:30:35.415Z,68.29
2023-04-29T15:31:35.384Z,67.92
2023-04-29T15:32:35.415Z,69.88
2023-04-29T15:33:35.338Z,68.96
2023-04-29T15:34:35.328Z,70.79
2023-04-29T15:35:35.325Z,69.51
2023-04-29T15:36:35.353Z,70.62
2023-04-29T15:37:35.291Z,71.64
2023-04-29T15:38:35.298Z,70.42
2023-04-29T15:39:35.259Z,70.11
2023-04-29T15:40:35.297Z,71.94
2023-04-29T15:41:35.257Z,70.72
2023-04-29T15:42:35.231Z,71.03
2023-04-29T15:43:35.218Z,70.62
2023-04-29T15:44:35.244Z,73.36
2023-04-29T15:45:35.225Z,71.44
2023-04-29T15:46:35.203Z,74.48
2023-04-29T15:47:35.223Z,71.64
2023-04-29T15:48:35.183Z,76.51
2023-04-29T15:49:35.202Z,75.09
2023-04-29T15:50:35.150Z,73.26
2023-04-29T15:51:35.173Z,72.14
2023-04-29T15:52:35.164Z,71.53
2023-04-29T15:53:35.145Z,71.84
2023-04-29T15:54:35.106Z,71.94
2023-04-29T15:55:35.101Z,70.86
2023-04-29T15:56:35.102Z,73.50
2023-04-29T15:57:35.103Z,71.88
2023-04-29T15:58:35.091Z,72.48
2023-04-29T15:59:35.053Z,74.41
2023-04-29T16:00:35.045Z,71.88
2023-04-29T16:01:36.452Z,73.80
2023-04-29T16:02:35.085Z,75.63
2023-04-29T16:03:35.153Z,78.64
2023-04-29T16:04:35.006Z,72.38
2023-04-29T16:05:35.020Z,72.89
2023-04-29T16:06:35.143Z,73.36
2023-04-29T16:07:36.686Z,73.06
2023-04-29T16:08:34.969Z,74.38
2023-04-29T16:09:34.950Z,75.79
2023-04-29T16:10:34.949Z,75.79
2023-04-29T16:11:34.956Z,72.08
2023-04-29T16:12:34.936Z,74.71
2023-04-29T16:13:36.368Z,77.25
2023-04-29T16:14:34.934Z,80.30
2023-04-29T16:15:34.926Z,80.50
2023-04-29T16:16:34.944Z,76.44
2023-04-29T16:17:34.900Z,74.92
2023-04-29T16:18:34.873Z,77.97
2023-04-29T16:19:36.814Z,75.93
2023-04-29T16:20:34.835Z,75.36
2023-04-29T16:21:34.864Z,77.09
2023-04-29T16:22:34.876Z,78.61
2023-04-29T16:23:34.795Z,81.52
2023-04-29T16:24:34.791Z,81.41
2023-04-29T16:25:34.832Z,82.33
2023-04-29T16:26:34.795Z,82.64
2023-04-29T16:27:34.771Z,82.03
2023-04-29T16:28:34.756Z,81.52
2023-04-29T16:29:34.745Z,82.33
2023-04-29T16:30:34.810Z,82.47
2023-04-29T16:31:34.820Z,78.20
2023-04-29T16:32:34.756Z,78.91
2023-04-29T16:33:34.711Z,81.15
2023-04-29T16:34:34.730Z,81.96
2023-04-29T16:35:34.691Z,79.12
2023-04-29T16:36:34.693Z,76.10
2023-04-29T16:37:34.652Z,77.12
2023-04-29T16:38:34.663Z,77.53
2023-04-29T16:39:34.721Z,80.98
2023-04-29T16:40:34.640Z,83.12
2023-04-29T16:41:34.623Z,79.86
2023-04-29T16:42:34.620Z,81.79
2023-04-29T16:43:34.617Z,80.47
2023-04-29T16:44:34.614Z,81.59
2023-04-29T16:45:34.624Z,81.09
2023-04-29T16:46:34.700Z,81.19
2023-04-29T16:47:34.592Z,82.71
2023-04-29T16:48:34.536Z,82.31
2023-04-29T16:49:34.551Z,83.32
2023-04-29T16:50:34.515Z,82.81
2023-04-29T16:51:34.552Z,82.31
2023-04-29T16:52:34.502Z,83.12
2023-04-29T16:53:34.533Z,83.01
2023-04-29T16:54:34.677Z,83.62
2023-04-29T16:55:34.474Z,79.97
2023-04-29T16:56:34.498Z,81.79
2023-04-29T16:57:34.484Z,82.40
2023-04-29T16:58:34.444Z,84.03
2023-04-29T16:59:34.472Z,83.56
2023-04-29T17:00:34.430Z,83.06
2023-04-29T17:01:34.437Z,81.73